Aviation Digital Data Service (ADDS)

Output produced by METARs form (1647 UTC 20 January 2019)
found at http://www.aviationweather.gov/metar/data/
 
EFET 201620Z 00000KT CAVOK M33/M36 Q1007
TAF EFET 201425Z 2015/2017 VRB02KT CAVOK
       
EFHA 201620Z AUTO 30006KT 0900 SN OVC018 M12/M14 Q1006
EFHK 201620Z 28007KT CAVOK M11/M12 Q1008 NOSIG
TAF EFHK 201426Z 2015/2115 28005KT 9999 FEW015 SCT200
       
EFIV 201620Z 24008KT CAVOK M29/M32 Q1008
TAF EFIV 201425Z 2015/2018 24006KT CAVOK
       
EFJO 201620Z 29005KT 9999 -SHSN SCT009 M24/M26 Q1003
TAF EFJO 201425Z 2015/2024 30006KT 9999 -SN FEW006 BKN015 
     TEMPO 2015/2018 4000 BKN009 
     PROB30 2018/2024 4000 BKN010
       
EFJY 201620Z AUTO 31008KT 4400 -SN FEW015 OVC026 M16/M18 Q1005
TAF EFJY 201426Z 2015/2115 30009KT CAVOK 
     TEMPO 2015/2018 2000 -SN BKN013
       
EFKI 201620Z AUTO 22002KT CAVOK M27/M30 Q1005
TAF EFKI 201425Z 2015/2022 27005KT 9999 FEW030 
     PROB40 2015/2018 5000 -SN
       
EFKE 201620Z AUTO 03003KT CAVOK M29/M33 Q1009
TAF EFKE 201425Z 2015/2024 01005KT CAVOK
       
EFKT 201620Z VRB01KT CAVOK M19/M21 Q1008
TAF EFKT 201425Z 2015/2022 32004KT CAVOK
       
EFKK 201620Z 06002KT 9999 -SN FEW013 M20/M22 Q1009
TAF EFKK 201425Z 2015/2024 26001KT 9999 -SN FEW015 
     PROB40 2015/2018 2000 -SHSN BKN010 BKN015TCU 
     PROB30 2018/2024 5000 BKN008
       
EFKU 201620Z AUTO 30009KT 9999 -SN BKN030 M20/M23 Q1005
TAF AMD EFKU 201631Z 2016/2115 30008KT 9999 -SN SCT025 
     TEMPO 2016/2021 3000 -SN 
     PROB30 2016/2021 1200 
     PROB30 2021/2106 4000 -SN
       
EFKS 201620Z AUTO 32004KT CAVOK M21/M24 Q1004
TAF EFKS 201425Z 2015/2022 32006KT 9999 -SN FEW030 
     TEMPO 2015/2018 4000 -SN 
     PROB30 2018/2022 4000 -SN
       
EFLP 201620Z AUTO 30005KT 270V350 9999 -SN FEW032 BKN107 M15/M17 Q1004
EFMA 201620Z AUTO 32006KT 290V350 9999 BKN031 M03/M09 Q1012
TAF EFMA 201426Z 2015/2024 32008KT 9999 BKN035
       
EFMI 201620Z AUTO 28005KT 260V330 9999 -SN SKC ///// Q////
EFOU 201620Z AUTO 34005KT 9999 3600 -SN NSC M22/M24 Q1008
TAF EFOU 201425Z 2015/2115 33004KT 9999 FEW006 
     PROB40 2015/2018 5000 -SN
       
EFPO 201620Z AUTO 31005KT 9999 OVC018/// M07/M09 Q1010
EFRO 201620Z AUTO 02005KT CAVOK M19/M20 Q1007
TAF EFRO 201425Z 2015/2115 36005KT CAVOK 
     PROB30 2103/2115 2000 -SN
       
EFSA 201620Z AUTO 29005KT 9999 -SN FEW028 M19/M21 Q1004
EFSI 201620Z AUTO 30004KT 3300 -SN FEW015 BKN019 M11/M12 Q1008
EFTP 201620Z AUTO 30005KT 9999 -SN FEW009 M11/M13 Q1008
TAF AMD EFTP 201519Z 2015/2115 29005KT 9999 FEW015 SCT020 
     TEMPO 2015/2019 2500 -SN BKN011
       
EFTU 201620Z AUTO 29004KT CAVOK M12/M13 Q1009
TAF EFTU 201426Z 2015/2115 33003KT 9999 BKN025 
     PROB30 
     TEMPO 2015/2018 5000 -SN
       
EFUT 201620Z AUTO 30007KT 270V350 CAVOK M14/M16 Q1005
EFVA 201620Z AUTO 28005KT 2800 -SN BKN016/// BKN022/// OVC031/// M10/M11 Q1009
TAF EFVA 201425Z 2015/2115 31008KT 5000 -SN SCT008 BKN020 
     TEMPO 2015/2018 2000 SN BKN008 FEW015TCU 
     BECMG 2018/2020 8000 
     PROB30 2020/2115 5000 BKN007